Terminal Aerodrome Forecast
Issued by NWS

Home | Current Version | Previous Version | Text Only | Print | Product List | Glossary On
Versions: 1 2 3 4 5 6 7 8 9 10 11 12 13 14 15 16 17 18 19 20 21
000
FTUS45 KFGZ 020921 AAA
TAFSEZ
TAF AMD
KSEZ 020921Z 0209/0306 32008KT P6SM VCSH SCT100 BKN120
     FM021200 04008KT P6SM SCT080 BKN120
     FM022000 20008KT P6SM SCT090 BKN120=

USA.gov is the U.S. government's official web portal to all federal, state and local government web resources and services.